Data for 04/02/2014

Time Sea-Level Adjusted Pressure Absolute Pressure Temperature Relative Humidity Dew Point   
(mb) (inHg) (mb) (inHg) (C) (F) (%) (C) (F)
00:05 1009 29.8 838 24.75 -2.3 27.9 83 -4.8 23.3
00:10 1009 29.8 838 24.75 -2.4 27.7 83 -4.9 23.2
00:15 1009 29.8 838 24.75 -2.4 27.7 83 -4.9 23.1
00:20 1009 29.8 838 24.75 -2.4 27.6 82 -5 22.9
00:25 1009 29.8 838 24.75 -2.5 27.6 83 -5 23
00:30 1009 29.8 838 24.75 -2.5 27.5 84 -4.8 23.3
00:35 1009 29.8 838 24.75 -2.6 27.3 85 -4.8 23.4
00:40 1009 29.8 838 24.75 -2.6 27.2 85 -4.8 23.3
00:45 1009 29.8 838 24.75 -2.7 27.2 86 -4.7 23.5
00:50 1009 29.8 838 24.75 -2.7 27.1 86 -4.7 23.5
00:55 1009 29.8 838 24.75 -2.7 27.1 86 -4.7 23.5
01:00 1009 29.8 838 24.75 -2.8 27 87 -4.7 23.5
01:05 1009 29.8 838 24.75 -2.8 27 87 -4.6 23.7
01:10 1009 29.8 838 24.75 -2.8 26.9 88 -4.6 23.7
01:15 1009 29.8 838 24.75 -2.8 26.9 88 -4.5 23.8
01:20 1009 29.8 838 24.75 -2.8 26.9 87 -4.7 23.5
01:25 1009 29.8 838 24.75 -2.8 27 86 -4.8 23.3
01:30 1009 29.8 838 24.75 -2.9 26.8 87 -4.8 23.3
01:35 1009 29.8 838 24.75 -2.9 26.8 87 -4.8 23.3
01:40 1009 29.8 838 24.75 -2.9 26.7 87 -4.8 23.4
01:45 1009 29.8 838 24.75 -2.9 26.7 87 -4.8 23.3
01:50 1009 29.8 838 24.75 -2.9 26.8 86 -4.9 23.2
01:55 1009 29.8 838 24.75 -2.9 26.8 87 -4.8 23.3
02:00 1009 29.8 838 24.75 -2.9 26.7 87 -4.9 23.2
02:05 1009 29.8 838 24.75 -2.9 26.7 86 -4.9 23.2
02:10 1009 29.8 838 24.75 -2.9 26.7 86 -4.9 23.1
02:15 1009 29.8 838 24.75 -3 26.6 86 -5 23.1
02:20 1009 29.8 838 24.75 -3 26.6 87 -4.9 23.1
02:25 1009 29.8 838 24.75 -3 26.6 87 -4.9 23.2
02:30 1009 29.8 838 24.75 -3 26.5 88 -4.8 23.3
02:35 1009 29.8 838 24.75 -3.1 26.4 88 -4.8 23.4
02:40 1009 29.8 838 24.75 -3.1 26.5 87 -4.9 23.2
02:45 1009 29.8 838 24.75 -3.1 26.4 87 -5 23.1
02:50 1009 29.8 838 24.75 -3.1 26.4 87 -4.9 23.1
02:55 1009 29.8 838 24.75 -3.1 26.4 87 -5 23.1
03:00 1009 29.8 838 24.75 -3.1 26.3 88 -4.9 23.1
03:05 1009 29.8 838 24.75 -3.2 26.3 88 -4.9 23.1
03:10 1009 29.8 838 24.75 -3.2 26.3 88 -4.9 23.1
03:15 1009 29.8 838 24.75 -3.2 26.3 88 -5 23.1
03:20 1009 29.8 838 24.75 -3.3 26.1 88 -5 23.1
03:25 1009 29.8 838 24.75 -3.3 26.1 88 -5 23
03:30 1009 29.8 838 24.75 -3.3 26 88 -5 23
03:35 1009 29.8 838 24.75 -3.4 26 88 -5 23
03:40 1009 29.8 838 24.75 -3.4 25.9 88 -5.1 22.9
03:45 1009 29.8 838 24.75 -3.4 25.8 88 -5.1 22.8
03:50 1009 29.8 838 24.75 -3.5 25.7 88 -5.2 22.7
03:55 1009 29.8 838 24.75 -3.5 25.7 89 -5.1 22.8
04:00 1009 29.8 838 24.75 -3.5 25.6 88 -5.2 22.6
04:05 1009 29.8 838 24.75 -3.5 25.6 88 -5.2 22.6
04:10 1009 29.8 838 24.75 -3.5 25.7 87 -5.3 22.4
04:15 1009 29.8 838 24.75 -3.5 25.7 88 -5.3 22.5
04:20 1009 29.8 838 24.75 -3.5 25.7 87 -5.4 22.3
04:25 1009 29.8 838 24.75 -3.5 25.8 87 -5.4 22.3
04:30 1009 29.8 838 24.75 -3.5 25.8 86 -5.4 22.2
04:35 1009 29.8 838 24.75 -3.5 25.7 86 -5.5 22.1
04:40 1009 29.8 838 24.75 -3.4 25.8 85 -5.6 22
04:45 1009 29.8 838 24.75 -3.4 25.9 85 -5.6 21.9
04:50 1009 29.8 838 24.75 -3.4 25.9 85 -5.6 22
04:55 1009 29.8 838 24.75 -3.4 25.9 85 -5.6 21.9
05:00 1009 29.8 838 24.75 -3.4 26 84 -5.6 21.8
05:05 1009 29.8 838 24.75 -3.4 26 85 -5.6 22
05:10 1009 29.8 838 24.75 -3.4 25.8 86 -5.4 22.2
05:15 1009 29.8 838 24.75 -3.5 25.7 87 -5.3 22.5
05:20 1009 29.8 838 24.75 -3.5 25.6 88 -5.3 22.5
05:25 1009 29.8 838 24.75 -3.6 25.6 88 -5.3 22.5
05:30 1009 29.8 838 24.75 -3.6 25.5 88 -5.3 22.5
05:35 1009 29.8 838 24.75 -3.6 25.6 87 -5.4 22.3
05:40 1009 29.8 838 24.75 -3.6 25.6 87 -5.4 22.3
05:45 1009 29.8 838 24.75 -3.5 25.7 86 -5.5 22
05:50 1009 29.8 838 24.75 -3.5 25.8 86 -5.5 22.2
05:55 1009 29.8 838 24.75 -3.5 25.8 86 -5.5 22.2
06:00 1009 29.8 838 24.75 -3.5 25.8 86 -5.5 22
06:05 1009 29.8 838 24.75 -3.5 25.8 86 -5.5 22.1
06:10 1009 29.8 838 24.75 -3.5 25.7 86 -5.5 22.1
06:15 1009 29.8 838 24.75 -3.5 25.7 86 -5.5 22.1
06:20 1009 29.8 838 24.75 -3.5 25.6 86 -5.5 22
06:25 1009 29.8 838 24.75 -3.6 25.6 86 -5.5 22
06:30 1009 29.8 838 24.75 -3.6 25.5 86 -5.6 22
06:35 1009 29.8 838 24.75 -3.6 25.5 86 -5.6 21.9
06:40 1009 29.8 838 24.75 -3.6 25.5 86 -5.5 22
06:45 1009 29.8 838 24.75 -3.6 25.6 87 -5.5 22.1
06:50 1009 29.8 839 24.78 -3.5 25.6 86 -5.6 21.9
06:55 1009 29.8 839 24.78 -3.5 25.6 85 -5.7 21.7
07:00 1009 29.8 839 24.78 -3.5 25.7 85 -5.7 21.8
07:05 1009 29.8 839 24.78 -3.5 25.7 85 -5.7 21.8
07:10 1009 29.8 839 24.78 -3.5 25.7 86 -5.6 21.9
07:15 1009 29.8 839 24.78 -3.5 25.8 85 -5.6 21.9
07:20 1009 29.8 839 24.78 -3.5 25.8 84 -5.8 21.5
07:25 1010 29.83 839 24.78 -3.4 25.9 84 -5.8 21.6
07:30 1009 29.8 839 24.78 -3.3 26 83 -5.8 21.6
07:35 1010 29.83 839 24.78 -3.2 26.2 81 -6.1 21.1
07:40 1010 29.83 839 24.78 -3.1 26.4 80 -6 21.1
07:45 1010 29.83 839 24.78 -3 26.6 80 -6 21.1
07:50 1010 29.83 839 24.78 -3 26.7 80 -6 21.2
07:55 1010 29.83 839 24.78 -3 26.6 80 -5.9 21.4
08:00 1010 29.83 839 24.78 -2.9 26.7 82 -5.6 21.9
08:05 1010 29.83 839 24.78 -2.8 27 81 -5.7 21.8
08:10 1010 29.83 839 24.78 -2.8 27 82 -5.4 22.2
08:15 1010 29.83 839 24.78 -2.7 27.2 80 -5.6 21.9
08:20 1010 29.83 839 24.78 -2.6 27.4 80 -5.6 22
08:25 1010 29.83 839 24.78 -2.4 27.7 79 -5.5 22
08:30 1010 29.83 839 24.78 -2.2 28 79 -5.4 22.3
08:35 1010 29.83 839 24.78 -2.1 28.2 77 -5.6 22
08:40 1010 29.83 839 24.78 -2.2 28.1 78 -5.5 22
08:45 1010 29.83 839 24.78 -1.9 28.5 76 -5.5 22
08:50 1010 29.83 839 24.78 -1.8 28.7 76 -5.5 22.1
08:55 1010 29.83 839 24.78 -1.8 28.8 77 -5.3 22.4
09:00 1010 29.83 839 24.78 -1.5 29.3 76 -5.2 22.6
09:05 1010 29.83 839 24.78 -1.6 29.2 78 -5 23
09:10 1010 29.83 839 24.78 -1.3 29.6 76 -5 23
09:15 1010 29.83 839 24.78 -1.3 29.6 78 -4.7 23.6
09:20 1010 29.83 839 24.78 -1.1 30.1 77 -4.7 23.6
09:25 1010 29.83 839 24.78 -0.9 30.3 78 -4.4 24.2
09:30 1010 29.83 839 24.78 -0.7 30.7 78 -4.1 24.7
09:35 1010 29.83 839 24.78 -0.6 30.9 79 -3.9 25
09:40 1010 29.83 839 24.78 -0.4 31.3 78 -3.8 25.1
09:45 1010 29.83 839 24.78 -0.2 31.6 76 -4 24.8
09:50 1010 29.83 839 24.78 -0.2 31.7 78 -3.5 25.7
09:55 1010 29.83 839 24.78 -0 31.9 78 -3.4 25.9
10:00 1010 29.83 839 24.78 0.3 32.5 77 -3.3 26
10:05 1010 29.83 839 24.78 0.2 32.4 76 -3.5 25.8
10:10 1010 29.83 839 24.78 -0.5 31.1 83 -3 26.5
10:15 1010 29.83 839 24.78 -0.7 30.8 85 -2.9 26.7
10:20 1010 29.83 839 24.78 -0.4 31.3 82 -3.1 26.4
10:25 1010 29.83 839 24.78 0.1 32.3 79 -3 26.5
10:30 1010 29.83 839 24.78 0.7 33.2 78 -2.8 27
10:35 1010 29.83 840 24.81 0.5 32.8 80 -2.6 27.3
10:40 1010 29.83 840 24.81 0.6 33.1 76 -3.2 26.3
10:45 1010 29.83 840 24.81 1 33.8 73 -3.3 26.1
10:50 1010 29.83 840 24.81 1.5 34.6 73 -2.9 26.8
10:55 1010 29.83 840 24.81 1.6 34.9 74 -2.6 27.3
11:00 1010 29.83 840 24.81 1.7 35 75 -2.4 27.8
11:05 1010 29.83 840 24.81 1.4 34.5 76 -2.3 27.8
11:10 1010 29.83 840 24.81 1.1 34 81 -1.7 28.9
11:15 1010 29.83 840 24.81 1.2 34.2 79 -2.1 28.3
11:20 1011 29.85 840 24.81 1.2 34.1 81 -1.7 29
11:25 1010 29.83 840 24.81 1.6 34.8 74 -2.6 27.4
11:30 1010 29.83 840 24.81 1.4 34.5 78 -2 28.4
11:35 1010 29.83 840 24.81 1.5 34.7 75 -2.4 27.7
11:40 1010 29.83 840 24.81 1.5 34.7 74 -2.6 27.3
11:45 1010 29.83 840 24.81 1.6 34.8 73 -2.7 27.2
11:50 1010 29.83 840 24.81 1.7 35.1 74 -2.4 27.7
11:55 1010 29.83 840 24.81 1.6 34.8 74 -2.5 27.5
12:00 1010 29.83 840 24.81 1.5 34.7 74 -2.7 27.2
12:05 1010 29.83 840 24.81 1.7 35 72 -2.8 27
12:10 1010 29.83 840 24.81 1.4 34.5 74 -2.7 27.1
12:15 1010 29.83 840 24.81 1.1 33.9 75 -2.8 26.9
12:20 1010 29.83 840 24.81 1.1 33.9 79 -2.2 28
12:25 1010 29.83 840 24.81 1.4 34.5 80 -1.6 29.1
12:30 1010 29.83 840 24.81 1.3 34.3 74 -2.9 26.7
12:35 1010 29.83 840 24.81 1.1 34 80 -2 28.4
12:40 1010 29.83 840 24.81 1.5 34.6 77 -2.1 28.2
12:45 1010 29.83 840 24.81 2 35.6 72 -2.5 27.5
12:50 1010 29.83 840 24.81 2.5 36.4 71 -2.3 27.8
12:55 1010 29.83 840 24.81 1.8 35.3 71 -2.8 27
13:00 1010 29.83 840 24.81 2.2 36 68 -3 26.5
13:05 1010 29.83 840 24.81 2.3 36.2 71 -2.4 27.6
13:10 1010 29.83 840 24.81 2.3 36.1 70 -2.6 27.2
13:15 1010 29.83 840 24.81 2.4 36.4 69 -2.6 27.2
13:20 1010 29.83 840 24.81 2.3 36.2 68 -2.9 26.7
13:25 1010 29.83 840 24.81 2.2 35.9 68 -3.2 26.3
13:30 1010 29.83 840 24.81 2.7 36.9 68 -2.5 27.5
13:35 1010 29.83 840 24.81 3.4 38.2 61 -3.3 26
13:40 1010 29.83 839 24.78 4.4 39.9 59 -3 26.6
13:45 1010 29.83 839 24.78 4.4 39.9 60 -2.8 27
13:50 1010 29.83 839 24.78 3.6 38.5 62 -2.9 26.7
13:55 1010 29.83 839 24.78 3.4 38.1 60 -3.7 25.3
14:00 1010 29.83 839 24.78 3.4 38.1 61 -3.4 25.8
14:05 1010 29.83 839 24.78 3.1 37.6 63 -3.3 26.1
14:10 1010 29.83 839 24.78 3.3 37.9 60 -3.8 25.2
14:15 1010 29.83 839 24.78 3.5 38.2 60 -3.5 25.7
14:20 1010 29.83 839 24.78 3.4 38.1 63 -3 26.5
14:25 1010 29.83 839 24.78 3.5 38.3 60 -3.6 25.6
14:30 1010 29.83 839 24.78 3.4 38.1 60 -3.6 25.5
14:35 1010 29.83 839 24.78 3.5 38.3 59 -3.7 25.4
14:40 1010 29.83 839 24.78 3.4 38.2 62 -3.1 26.4
14:45 1010 29.83 839 24.78 3.1 37.7 61 -3.6 25.4
14:50 1010 29.83 839 24.78 3.6 38.4 58 -4 24.8
14:55 1010 29.83 839 24.78 3.4 38 60 -3.7 25.4
15:00 1010 29.83 839 24.78 3.3 37.9 59 -3.9 25
15:05 1010 29.83 839 24.78 3.2 37.8 58 -4.3 24.3
15:10 1010 29.83 839 24.78 3.5 38.4 54 -4.8 23.4
15:15 1010 29.83 839 24.78 3.8 38.8 54 -4.8 23.4
15:20 1010 29.83 839 24.78 3.9 39 54 -4.5 23.9
15:25 1010 29.83 839 24.78 3.9 38.9 52 -5.1 22.8
15:30 1010 29.83 839 24.78 4 39.2 53 -4.8 23.3
15:35 1010 29.83 839 24.78 4.1 39.3 51 -5.2 22.7
15:40 1010 29.83 839 24.78 4.2 39.5 54 -4.3 24.2
15:45 1010 29.83 839 24.78 4.3 39.8 54 -4.3 24.3
15:50 1010 29.83 839 24.78 4.2 39.6 53 -4.6 23.6
15:55 1010 29.83 839 24.78 4.2 39.6 53 -4.4 24.1
16:00 1010 29.83 839 24.78 4.3 39.7 52 -4.7 23.6
16:05 1010 29.83 839 24.78 4.2 39.6 53 -4.5 23.8
16:10 1010 29.83 839 24.78 4.2 39.6 53 -4.5 24
16:15 1010 29.83 839 24.78 4.2 39.6 52 -4.9 23.3
16:20 1010 29.83 839 24.78 4.4 40 52 -4.6 23.8
16:25 1010 29.83 839 24.78 4.3 39.8 51 -4.8 23.4
16:30 1010 29.83 840 24.81 4.3 39.7 51 -4.9 23.3
16:35 1010 29.83 840 24.81 4.4 39.8 51 -4.9 23.2
16:40 1010 29.83 840 24.81 4.2 39.6 51 -4.9 23.2
16:45 1010 29.83 840 24.81 4.3 39.8 51 -4.9 23.2
16:50 1010 29.83 840 24.81 4.6 40.3 51 -4.7 23.5
16:55 1010 29.83 840 24.81 4.2 39.5 52 -4.8 23.4
17:00 1010 29.83 840 24.81 4.1 39.4 51 -5 23
17:05 1010 29.83 840 24.81 4.2 39.5 52 -4.9 23.1
17:10 1011 29.85 840 24.81 4.5 40.1 50 -5.1 22.8
17:15 1011 29.85 840 24.81 4.3 39.8 51 -5 23
17:20 1011 29.85 840 24.81 4.3 39.7 53 -4.5 23.8
17:25 1011 29.85 840 24.81 4.3 39.7 56 -3.7 25.3
17:30 1011 29.85 840 24.81 4 39.2 57 -3.7 25.3
17:35 1011 29.85 840 24.81 3.7 38.7 69 -1.5 29.4
17:40 1011 29.85 840 24.81 2.9 37.2 73 -1.6 29.2
17:45 1011 29.85 840 24.81 2.6 36.6 73 -1.8 28.8
17:50 1011 29.85 840 24.81 2.3 36.1 74 -1.9 28.5
17:55 1011 29.85 840 24.81 1.9 35.5 73 -2.3 27.8
18:00 1011 29.85 840 24.81 2.1 35.8 71 -2.5 27.5
18:05 1011 29.85 840 24.81 2.4 36.3 70 -2.5 27.5
18:10 1011 29.85 841 24.83 2.6 36.7 70 -2.3 27.9
18:15 1012 29.88 841 24.83 2.7 36.8 74 -1.4 29.5
18:20 1012 29.88 841 24.83 2 35.6 85 -0.3 31.5
18:25 1012 29.88 841 24.83 1.2 34.1 89 -0.5 31.2
18:30 1012 29.88 841 24.83 0.9 33.6 90 -0.5 31
18:35 1012 29.88 841 24.83 0.9 33.6 90 -0.6 30.9
18:40 1012 29.88 841 24.83 0.6 33.1 91 -0.7 30.8
18:45 1012 29.88 841 24.83 0.2 32.4 93 -0.7 30.7
18:50 1012 29.88 841 24.83 0.1 32.2 93 -0.9 30.4
18:55 1012 29.88 841 24.83 -0.2 31.7 92 -1.3 29.6
19:00 1012 29.88 841 24.83 -0.3 31.4 93 -1.4 29.6
19:05 1012 29.88 841 24.83 -0.2 31.6 91 -1.5 29.3
19:10 1012 29.88 841 24.83 0.1 32.2 82 -2.7 27.2
19:15 1012 29.88 841 24.83 0.7 33.2 81 -2.3 27.9
19:20 1012 29.88 841 24.83 0.7 33.3 81 -2.2 28
19:25 1012 29.88 841 24.83 0.7 33.2 82 -2.1 28.2
19:30 1012 29.88 841 24.83 0.6 33 81 -2.3 27.9
19:35 1012 29.88 841 24.83 0.3 32.6 84 -2 28.3
19:40 1012 29.88 842 24.86 0.1 32.2 85 -2.2 28.1
19:45 1012 29.88 842 24.86 0.2 32.3 83 -2.3 27.8
19:50 1013 29.91 842 24.86 0.2 32.3 83 -2.3 27.8
19:55 1013 29.91 842 24.86 0.1 32.1 85 -2.2 28.1
20:00 1013 29.91 842 24.86 -0 32 84 -2.4 27.7
20:05 1013 29.91 842 24.86 0.1 32.2 81 -2.9 26.9
20:10 1013 29.91 842 24.86 0.2 32.4 83 -2.3 27.8
20:15 1013 29.91 842 24.86 0.1 32.2 83 -2.4 27.7
20:20 1013 29.91 842 24.86 0 32.1 84 -2.4 27.7
20:25 1013 29.91 842 24.86 -0.1 31.9 85 -2.2 28
20:30 1013 29.91 842 24.86 -0.2 31.7 86 -2.3 27.9
20:35 1013 29.91 842 24.86 -0.2 31.6 82 -2.9 26.8
20:40 1013 29.91 842 24.86 -0.1 31.8 84 -2.6 27.3
20:45 1013 29.91 842 24.86 -0.2 31.6 86 -2.3 27.8
20:50 1013 29.91 842 24.86 -0.4 31.4 87 -2.3 27.9
20:55 1013 29.91 843 24.89 -0.5 31.2 87 -2.3 27.9
21:00 1013 29.91 843 24.89 -0.5 31.2 87 -2.3 27.9
21:05 1013 29.91 843 24.89 -0.5 31.1 87 -2.4 27.7
21:10 1013 29.91 843 24.89 -0.6 30.9 87 -2.5 27.5
21:15 1013 29.91 843 24.89 -0.6 31 86 -2.6 27.3
21:20 1013 29.91 843 24.89 -0.4 31.3 84 -2.7 27.1
21:25 1013 29.91 843 24.89 -0.3 31.5 84 -2.7 27.1
21:30 1013 29.91 843 24.89 -0.2 31.6 83 -2.7 27.1
21:35 1013 29.91 843 24.89 -0.3 31.5 84 -2.6 27.3
21:40 1014 29.94 843 24.89 -0.4 31.3 84 -2.7 27.1
21:45 1014 29.94 843 24.89 -0.4 31.2 85 -2.7 27.1
21:50 1014 29.94 843 24.89 -0.6 30.9 85 -2.9 26.8
21:55 1014 29.94 843 24.89 -0.7 30.7 84 -3.1 26.5
22:00 1014 29.94 843 24.89 -0.7 30.7 84 -3.1 26.4
22:05 1014 29.94 843 24.89 -0.5 31.1 82 -3.2 26.3
22:10 1014 29.94 843 24.89 -0.4 31.3 81 -3.2 26.2
22:15 1014 29.94 843 24.89 -0.6 30.9 83 -3.2 26.3
22:20 1014 29.94 843 24.89 -0.8 30.6 83 -3.3 26
22:25 1014 29.94 843 24.89 -0.8 30.5 83 -3.3 26.1
22:30 1014 29.94 843 24.89 -0.9 30.4 84 -3.3 26.1
22:35 1014 29.94 843 24.89 -0.9 30.3 84 -3.3 26.1
22:40 1014 29.94 844 24.92 -1 30.2 85 -3.2 26.2
22:45 1014 29.94 844 24.92 -1.1 30.1 85 -3.3 26.1
22:50 1014 29.94 844 24.92 -0.9 30.3 83 -3.5 25.7
22:55 1014 29.94 844 24.92 -0.8 30.6 83 -3.3 26.1
23:00 1014 29.94 844 24.92 -0.9 30.3 83 -3.4 25.9
23:05 1014 29.94 844 24.92 -1.2 29.9 85 -3.5 25.8
23:10 1015 29.97 844 24.92 -1.4 29.5 85 -3.6 25.6
23:15 1015 29.97 844 24.92 -1.4 29.4 85 -3.6 25.6
23:20 1015 29.97 844 24.92 -1.4 29.6 84 -3.6 25.4
23:25 1015 29.97 844 24.92 -1.3 29.7 84 -3.6 25.5
23:30 1015 29.97 844 24.92 -1.2 29.8 83 -3.7 25.4
23:35 1015 29.97 844 24.92 -1.3 29.6 84 -3.7 25.3
23:40 1015 29.97 844 24.92 -1.3 29.6 83 -3.8 25.2
23:45 1015 29.97 844 24.92 -1.2 29.8 82 -3.8 25.1
23:50 1015 29.97 844 24.92 -1.2 29.8 82 -3.8 25.1
23:55 1015 29.97 844 24.92 -1.3 29.7 83 -3.9 25
24:00 1015 29.97 844 24.92 -1.4 29.5 83 -3.9 25